createdAt,value
2023-05-19T00:02:27.311Z,10.38
2023-05-19T00:04:55.072Z,9.13
2023-05-19T00:07:22.452Z,10.05
2023-05-19T00:09:49.725Z,14.10
2023-05-19T00:12:16.989Z,11.98
2023-05-19T00:14:44.367Z,15.18
2023-05-19T00:17:11.656Z,15.27
2023-05-19T00:19:39.643Z,12.60
2023-05-19T00:22:06.900Z,11.55
2023-05-19T00:24:34.277Z,8.90
2023-05-19T00:27:01.560Z,11.85
2023-05-19T00:29:28.866Z,15.18
2023-05-19T00:31:56.247Z,17.27
2023-05-19T00:34:23.676Z,12.35
2023-05-19T00:36:51.902Z,6.93
2023-05-19T00:39:19.197Z,10.30
2023-05-19T00:41:46.526Z,12.80
2023-05-19T00:44:13.807Z,11.48
2023-05-19T00:46:41.534Z,8.23
2023-05-19T00:49:09.107Z,13.55
2023-05-19T00:51:37.232Z,9.18
2023-05-19T00:54:04.526Z,10.13
2023-05-19T00:56:31.788Z,13.55
2023-05-19T00:59:00.662Z,12.27
2023-05-19T01:01:28.239Z,12.27
2023-05-19T01:03:59.102Z,18.17
2023-05-19T01:06:28.143Z,10.23
2023-05-19T01:08:57.484Z,9.93
2023-05-19T01:11:24.831Z,5.57
2023-05-19T01:13:52.169Z,13.35
2023-05-19T01:16:19.619Z,10.98
2023-05-19T01:18:46.958Z,10.18
2023-05-19T01:21:14.317Z,9.18
2023-05-19T01:23:41.577Z,13.13
2023-05-19T01:26:09.332Z,18.35
2023-05-19T01:28:36.596Z,14.32
2023-05-19T01:31:07.414Z,9.27
2023-05-19T01:33:34.750Z,9.98
2023-05-19T01:36:03.107Z,14.20
2023-05-19T01:38:30.718Z,12.63
2023-05-19T01:40:57.954Z,16.58
2023-05-19T01:43:25.250Z,12.85
2023-05-19T01:45:53.171Z,16.27
2023-05-19T01:48:21.708Z,15.65
2023-05-19T01:50:48.966Z,13.30
2023-05-19T01:53:16.292Z,8.85
2023-05-19T01:55:43.530Z,12.80
2023-05-19T01:58:13.932Z,7.95
2023-05-19T02:00:41.274Z,7.43
2023-05-19T02:03:08.584Z,9.77
2023-05-19T02:05:35.913Z,6.95
2023-05-19T02:08:03.165Z,16.13
2023-05-19T02:10:33.889Z,9.05
2023-05-19T02:13:01.331Z,8.65
2023-05-19T02:15:28.758Z,8.73
2023-05-19T02:17:56.088Z,11.85
2023-05-19T02:20:23.366Z,10.68
2023-05-19T02:22:50.725Z,12.60
2023-05-19T02:25:18.833Z,23.85
2023-05-19T02:27:46.550Z,18.58
2023-05-19T02:30:13.853Z,15.23
2023-05-19T02:32:41.188Z,7.45
2023-05-19T02:35:10.128Z,10.38
2023-05-19T02:37:38.030Z,13.02
2023-05-19T02:40:05.368Z,11.25
2023-05-19T02:42:32.637Z,17.30
2023-05-19T02:45:00.065Z,13.63
2023-05-19T02:47:27.391Z,18.02
2023-05-19T02:49:54.722Z,12.20
2023-05-19T02:52:22.482Z,14.45
2023-05-19T02:54:49.782Z,9.30
2023-05-19T02:57:17.126Z,6.85
2023-05-19T02:59:44.552Z,16.17
2023-05-19T03:02:11.972Z,14.10
2023-05-19T03:04:42.248Z,14.07
2023-05-19T03:07:10.308Z,21.50
2023-05-19T03:09:37.584Z,13.02
2023-05-19T03:12:06.638Z,13.38
2023-05-19T03:14:34.342Z,10.93
2023-05-19T03:17:01.825Z,12.07
2023-05-19T03:19:29.221Z,10.07
2023-05-19T03:21:56.616Z,12.00
2023-05-19T03:24:23.853Z,9.05
2023-05-19T03:26:51.652Z,10.10
2023-05-19T03:29:19.439Z,10.00
2023-05-19T03:31:46.745Z,7.55
2023-05-19T03:34:16.069Z,10.43
2023-05-19T03:36:45.053Z,10.43
2023-05-19T03:39:16.074Z,14.93
2023-05-19T03:41:44.457Z,10.55
2023-05-19T03:44:11.994Z,13.75
2023-05-19T03:46:39.358Z,13.35
2023-05-19T03:49:09.231Z,12.90
2023-05-19T03:51:55.227Z,12.63
2023-05-19T03:54:32.834Z,13.90
2023-05-19T03:57:00.133Z,10.25
2023-05-19T03:59:27.450Z,10.75
2023-05-19T04:01:54.757Z,12.68
2023-05-19T04:04:22.143Z,10.52
2023-05-19T04:06:49.569Z,12.68
2023-05-19T04:09:16.913Z,12.63
2023-05-19T04:11:44.234Z,12.82
2023-05-19T04:14:11.529Z,16.65
2023-05-19T04:16:38.912Z,16.63
2023-05-19T04:19:06.390Z,18.58
2023-05-19T04:21:35.899Z,15.35
2023-05-19T04:24:06.685Z,7.72
2023-05-19T04:26:34.977Z,15.52
2023-05-19T04:29:04.741Z,16.50
2023-05-19T04:31:34.438Z,16.30
2023-05-19T04:34:02.701Z,19.60
2023-05-19T04:36:31.352Z,16.42
2023-05-19T04:39:07.108Z,23.38
2023-05-19T04:41:34.849Z,14.98
2023-05-19T04:44:04.124Z,16.70
2023-05-19T04:46:31.490Z,16.65
2023-05-19T04:49:01.316Z,20.15
2023-05-19T04:51:31.526Z,14.90
2023-05-19T04:54:01.645Z,13.80
2023-05-19T04:56:30.103Z,19.23
2023-05-19T04:58:57.862Z,16.48
2023-05-19T05:01:27.343Z,12.23
2023-05-19T05:03:55.996Z,13.23
2023-05-19T05:06:23.767Z,18.40
2023-05-19T05:08:51.176Z,16.92
2023-05-19T05:11:18.787Z,14.25
2023-05-19T05:13:46.968Z,18.20
2023-05-19T05:16:14.871Z,16.80
2023-05-19T05:18:44.681Z,15.73
2023-05-19T05:21:12.707Z,13.73
2023-05-19T05:23:40.867Z,21.75
2023-05-19T05:26:08.201Z,17.85
2023-05-19T05:28:35.588Z,17.77
2023-05-19T05:31:03.168Z,14.82
2023-05-19T05:33:30.898Z,9.05
2023-05-19T05:35:58.412Z,12.00
2023-05-19T05:38:26.877Z,18.67
2023-05-19T05:40:54.279Z,17.08
2023-05-19T05:43:21.646Z,14.93
2023-05-19T05:45:54.516Z,15.57
2023-05-19T05:48:21.915Z,15.38
2023-05-19T05:50:50.412Z,10.32
2023-05-19T05:53:21.563Z,20.00
2023-05-19T05:55:53.640Z,18.30
2023-05-19T05:58:24.328Z,12.27
2023-05-19T06:00:51.848Z,9.13
2023-05-19T06:03:24.522Z,15.23
2023-05-19T06:05:52.726Z,12.48
2023-05-19T06:08:20.217Z,15.95
2023-05-19T06:10:47.963Z,14.52
2023-05-19T06:13:18.894Z,19.92
2023-05-19T06:15:46.711Z,19.10
2023-05-19T06:18:21.789Z,16.60
2023-05-19T06:20:49.207Z,17.80
2023-05-19T06:23:17.224Z,15.52
2023-05-19T06:25:44.518Z,18.95
2023-05-19T06:28:12.382Z,21.50
2023-05-19T06:30:39.856Z,15.73
2023-05-19T06:33:17.320Z,20.08
2023-05-19T06:35:44.931Z,26.85
2023-05-19T06:38:12.270Z,21.77
2023-05-19T06:40:39.766Z,14.18
2023-05-19T06:43:07.098Z,24.75
2023-05-19T06:45:56.039Z,17.02
2023-05-19T06:48:25.763Z,15.60
2023-05-19T06:50:53.085Z,15.35
2023-05-19T06:53:21.390Z,18.25
2023-05-19T06:55:59.249Z,15.45
2023-05-19T06:58:30.897Z,20.77
2023-05-19T07:00:59.803Z,17.40
2023-05-19T07:03:31.851Z,17.40
2023-05-19T07:05:59.804Z,12.77
2023-05-19T07:08:29.023Z,19.83
2023-05-19T07:10:58.036Z,15.85
2023-05-19T07:13:27.346Z,12.88
2023-05-19T07:15:56.956Z,20.10
2023-05-19T07:18:25.804Z,19.00
2023-05-19T07:20:53.864Z,17.38
2023-05-19T07:23:21.769Z,14.45
2023-05-19T07:25:49.120Z,17.30
2023-05-19T07:28:16.382Z,19.58
2023-05-19T07:30:44.206Z,15.18
2023-05-19T07:33:11.473Z,13.40
2023-05-19T07:35:38.861Z,15.50
2023-05-19T07:38:07.453Z,25.73
2023-05-19T07:40:34.949Z,17.63
2023-05-19T07:43:02.351Z,18.98
2023-05-19T07:45:29.746Z,16.33
2023-05-19T07:47:57.197Z,13.77
2023-05-19T07:50:24.606Z,14.35
2023-05-19T07:52:51.870Z,14.57
2023-05-19T07:55:19.289Z,14.52
2023-05-19T07:57:46.728Z,14.55
2023-05-19T08:00:14.153Z,13.85
2023-05-19T08:02:42.347Z,13.52
2023-05-19T08:05:09.760Z,17.50
2023-05-19T08:07:36.992Z,16.02
2023-05-19T08:10:04.403Z,14.27
2023-05-19T08:12:32.535Z,15.45
2023-05-19T08:15:01.384Z,15.27
2023-05-19T08:17:29.336Z,14.38
2023-05-19T08:19:56.591Z,20.25
2023-05-19T08:22:23.852Z,12.10
2023-05-19T08:24:51.920Z,14.45
2023-05-19T08:27:19.241Z,13.32
2023-05-19T08:29:46.498Z,16.58
2023-05-19T08:32:13.779Z,13.95
2023-05-19T08:34:41.377Z,17.58
2023-05-19T08:37:09.147Z,18.17
2023-05-19T08:39:36.785Z,14.90
2023-05-19T08:42:04.343Z,12.38
2023-05-19T08:44:31.725Z,17.70
2023-05-19T08:46:59.017Z,13.80
2023-05-19T08:49:26.305Z,13.43
2023-05-19T08:51:53.594Z,18.63
2023-05-19T08:54:22.480Z,19.30
2023-05-19T08:56:49.798Z,13.25
2023-05-19T08:59:17.189Z,11.80
2023-05-19T09:01:44.506Z,20.88
2023-05-19T09:04:11.855Z,16.88
2023-05-19T09:06:42.439Z,16.63
2023-05-19T09:09:10.323Z,14.07
2023-05-19T09:11:37.848Z,32.10
2023-05-19T09:14:05.220Z,20.20
2023-05-19T09:16:32.969Z,18.63
2023-05-19T09:19:01.332Z,20.15
2023-05-19T09:21:31.202Z,19.45
2023-05-19T09:23:59.275Z,20.83
2023-05-19T09:26:26.561Z,18.02
2023-05-19T09:28:53.876Z,18.40
2023-05-19T09:31:22.631Z,17.08
2023-05-19T09:33:50.038Z,17.85
2023-05-19T09:36:17.301Z,13.77
2023-05-19T09:38:44.650Z,10.52
2023-05-19T09:41:12.062Z,12.35
2023-05-19T09:43:39.331Z,11.18
2023-05-19T09:46:06.982Z,13.82
2023-05-19T09:48:34.769Z,9.98
2023-05-19T09:51:02.437Z,14.57
2023-05-19T09:53:30.417Z,11.35
2023-05-19T09:55:57.980Z,10.05
2023-05-19T09:58:25.318Z,11.23
2023-05-19T10:00:54.636Z,11.90
2023-05-19T10:03:22.486Z,10.90
2023-05-19T10:05:49.828Z,14.35
2023-05-19T10:08:17.916Z,9.75
2023-05-19T10:10:45.193Z,15.75
2023-05-19T10:13:12.559Z,7.38
2023-05-19T10:15:53.672Z,10.05
2023-05-19T10:18:25.271Z,8.65
2023-05-19T10:20:52.532Z,11.80
2023-05-19T10:23:20.188Z,10.75
2023-05-19T10:25:49.194Z,11.65
2023-05-19T10:28:16.841Z,7.78
2023-05-19T10:30:44.128Z,15.27
2023-05-19T10:33:11.456Z,8.65
2023-05-19T10:35:38.989Z,11.38
2023-05-19T10:38:06.509Z,13.95
2023-05-19T10:40:33.915Z,10.80
2023-05-19T10:43:01.452Z,16.17
2023-05-19T10:45:29.143Z,11.90
2023-05-19T10:47:56.526Z,20.67
2023-05-19T10:50:23.850Z,15.00
2023-05-19T10:52:51.143Z,9.63
2023-05-19T10:55:21.673Z,13.15
2023-05-19T10:57:48.918Z,12.75
2023-05-19T11:00:16.235Z,8.27
2023-05-19T11:02:44.245Z,8.15
2023-05-19T11:05:12.956Z,17.63
2023-05-19T11:07:40.296Z,10.02
2023-05-19T11:10:07.870Z,13.10
2023-05-19T11:12:35.222Z,7.88
2023-05-19T11:15:02.405Z,5.93
2023-05-19T11:17:29.882Z,6.78
2023-05-19T11:19:57.330Z,6.43
2023-05-19T11:22:27.605Z,8.57
2023-05-19T11:24:54.990Z,10.05
2023-05-19T11:27:22.306Z,7.78
2023-05-19T11:29:49.714Z,8.43
2023-05-19T11:32:17.152Z,5.20
2023-05-19T11:34:44.668Z,8.30
2023-05-19T11:37:11.988Z,6.18
2023-05-19T11:39:39.479Z,6.78
2023-05-19T11:42:06.778Z,5.82
2023-05-19T11:44:34.201Z,8.40
2023-05-19T11:47:02.105Z,8.93
2023-05-19T11:49:29.669Z,10.90
2023-05-19T11:51:57.037Z,6.25
2023-05-19T11:54:24.338Z,11.98
2023-05-19T11:56:51.586Z,7.72
2023-05-19T11:59:18.928Z,8.80
2023-05-19T12:01:46.425Z,11.10
2023-05-19T12:04:14.126Z,8.50
2023-05-19T12:06:41.744Z,8.05
2023-05-19T12:09:09.326Z,5.20
2023-05-19T12:11:36.625Z,9.55
2023-05-19T12:14:03.973Z,5.00
2023-05-19T12:16:33.442Z,7.93
2023-05-19T12:19:01.171Z,8.15
2023-05-19T12:21:34.317Z,6.15
2023-05-19T12:24:01.956Z,7.63
2023-05-19T12:26:30.272Z,10.85
2023-05-19T12:28:57.658Z,10.35
2023-05-19T12:31:25.103Z,9.00
2023-05-19T12:33:52.522Z,5.88
2023-05-19T12:36:20.306Z,5.93
2023-05-19T12:38:47.892Z,5.85
2023-05-19T12:41:15.265Z,4.10
2023-05-19T12:43:42.669Z,7.28
2023-05-19T12:46:10.111Z,6.88
2023-05-19T12:48:37.383Z,8.57
2023-05-19T12:51:05.630Z,8.38
2023-05-19T12:53:33.158Z,8.38
2023-05-19T12:56:00.368Z,8.32
2023-05-19T12:58:27.713Z,14.40
2023-05-19T13:00:55.616Z,7.90
2023-05-19T13:03:23.269Z,11.55
2023-05-19T13:05:50.881Z,10.80
2023-05-19T13:08:18.379Z,9.35
2023-05-19T13:10:45.975Z,13.32
2023-05-19T13:13:13.234Z,13.38
2023-05-19T13:15:40.499Z,12.85
2023-05-19T13:18:09.197Z,9.02
2023-05-19T13:20:36.511Z,11.50
2023-05-19T13:23:03.807Z,11.70
2023-05-19T13:25:31.114Z,12.45
2023-05-19T13:28:01.439Z,12.63
2023-05-19T13:30:28.781Z,12.27
2023-05-19T13:32:56.283Z,9.52
2023-05-19T13:35:23.644Z,12.40
2023-05-19T13:37:51.013Z,15.65
2023-05-19T13:40:19.013Z,17.65
2023-05-19T13:42:46.325Z,10.45
2023-05-19T13:45:13.615Z,12.10
2023-05-19T13:47:41.057Z,10.45
2023-05-19T13:50:08.372Z,12.23
2023-05-19T13:52:35.650Z,10.50
2023-05-19T13:55:03.776Z,17.08
2023-05-19T13:57:31.166Z,12.98
2023-05-19T14:00:03.310Z,13.77
2023-05-19T14:02:40.951Z,12.02
2023-05-19T14:05:08.729Z,11.85
2023-05-19T14:07:36.087Z,12.00
2023-05-19T14:10:04.150Z,11.80
2023-05-19T14:12:41.271Z,14.63
2023-05-19T14:15:14.971Z,16.92
2023-05-19T14:17:42.370Z,10.85
2023-05-19T14:20:09.899Z,10.85
2023-05-19T14:22:37.178Z,7.90
2023-05-19T14:25:04.636Z,13.05
2023-05-19T14:27:32.001Z,12.32
2023-05-19T14:29:59.332Z,10.35
2023-05-19T14:32:29.454Z,14.80
2023-05-19T14:34:57.605Z,17.50
2023-05-19T14:37:27.569Z,10.90
2023-05-19T14:39:55.546Z,8.45
2023-05-19T14:42:22.833Z,10.65
2023-05-19T14:44:50.480Z,9.93
2023-05-19T14:47:17.785Z,12.95
2023-05-19T14:49:45.126Z,12.05
2023-05-19T14:52:12.436Z,8.48
2023-05-19T14:54:40.328Z,10.73
2023-05-19T14:57:08.660Z,15.20
2023-05-19T14:59:36.647Z,10.98
2023-05-19T15:02:04.726Z,10.45
2023-05-19T15:04:35.045Z,10.90
2023-05-19T15:09:32.649Z,25.23
2023-05-19T15:12:01.298Z,13.25
2023-05-19T15:14:30.586Z,15.90
2023-05-19T15:16:59.246Z,15.70
2023-05-19T15:19:26.810Z,10.30
2023-05-19T15:21:54.377Z,11.80
2023-05-19T15:24:21.699Z,10.27
2023-05-19T15:26:49.106Z,13.68
2023-05-19T15:29:16.430Z,16.05
2023-05-19T15:31:43.982Z,12.48
2023-05-19T15:34:11.294Z,14.32
2023-05-19T15:36:38.966Z,16.65
2023-05-19T15:39:06.556Z,13.45
2023-05-19T15:41:33.825Z,19.52
2023-05-19T15:44:02.306Z,17.98
2023-05-19T15:46:29.657Z,17.20
2023-05-19T15:48:56.952Z,18.75
2023-05-19T15:51:24.297Z,24.38
2023-05-19T15:53:51.598Z,15.98
2023-05-19T15:56:22.556Z,16.33
2023-05-19T15:58:50.161Z,13.10
2023-05-19T16:01:17.566Z,12.85
2023-05-19T16:03:45.302Z,21.00
2023-05-19T16:06:15.912Z,20.45
2023-05-19T16:08:43.282Z,16.83
2023-05-19T16:11:10.678Z,11.77
2023-05-19T16:13:38.038Z,23.75
2023-05-19T16:16:05.570Z,22.55
2023-05-19T16:18:33.003Z,17.35
2023-05-19T16:21:00.422Z,25.40
2023-05-19T16:23:27.795Z,22.48
2023-05-19T16:25:55.294Z,27.05
2023-05-19T16:28:24.995Z,33.08
2023-05-19T16:30:52.540Z,33.03
2023-05-19T16:33:19.913Z,27.83
2023-05-19T16:35:47.272Z,35.20
2023-05-19T16:38:14.558Z,20.60
2023-05-19T16:40:42.057Z,27.92
2023-05-19T16:43:09.454Z,24.35
2023-05-19T16:45:36.885Z,16.70
2023-05-19T16:48:04.304Z,26.88
2023-05-19T16:50:31.666Z,34.22
2023-05-19T16:52:58.945Z,31.52
2023-05-19T16:55:26.998Z,33.70
2023-05-19T16:57:54.330Z,33.83
2023-05-19T17:00:21.801Z,31.20
2023-05-19T17:02:49.327Z,25.42
2023-05-19T17:05:16.870Z,39.40
2023-05-19T17:07:44.395Z,24.30
2023-05-19T17:10:11.802Z,27.65
2023-05-19T17:12:39.128Z,28.00
2023-05-19T17:15:06.532Z,30.60
2023-05-19T17:17:34.233Z,20.80
2023-05-19T17:20:03.251Z,28.90
2023-05-19T17:22:30.923Z,17.55
2023-05-19T17:24:59.365Z,24.73
2023-05-19T17:27:26.688Z,17.98
2023-05-19T17:29:53.970Z,26.65
2023-05-19T17:32:25.931Z,21.48
2023-05-19T17:34:53.390Z,27.33
2023-05-19T17:37:23.560Z,18.17
2023-05-19T17:39:51.112Z,27.13
2023-05-19T17:42:18.436Z,21.85
2023-05-19T17:44:45.851Z,29.75
2023-05-19T17:47:13.213Z,24.33
2023-05-19T17:49:40.726Z,34.75
2023-05-19T17:52:08.063Z,33.28
2023-05-19T17:54:35.399Z,25.10
2023-05-19T17:57:03.431Z,40.58
2023-05-19T17:59:31.440Z,26.55
2023-05-19T18:01:58.833Z,18.80
2023-05-19T18:04:26.182Z,43.80
2023-05-19T18:06:53.601Z,75.85
2023-05-19T18:09:24.594Z,38.90
2023-05-19T18:11:55.017Z,45.00
2023-05-19T18:14:22.478Z,31.92
2023-05-19T18:16:50.138Z,25.67
2023-05-19T18:19:17.618Z,32.60
2023-05-19T18:21:45.592Z,23.58
2023-05-19T18:24:12.897Z,32.72
2023-05-19T18:26:42.279Z,34.80
2023-05-19T18:29:11.089Z,40.80
2023-05-19T18:31:38.776Z,36.13
2023-05-19T18:34:06.214Z,34.20
2023-05-19T18:36:35.517Z,27.25
2023-05-19T18:39:03.510Z,30.70
2023-05-19T18:41:32.923Z,32.42
2023-05-19T18:44:00.320Z,23.27
2023-05-19T18:46:27.764Z,30.38
2023-05-19T18:48:55.423Z,41.13
2023-05-19T18:51:22.772Z,27.38
2023-05-19T18:53:50.197Z,43.45
2023-05-19T18:56:17.450Z,24.48
2023-05-19T18:58:44.870Z,25.85
2023-05-19T19:01:16.412Z,21.02
2023-05-19T19:03:45.028Z,23.88
2023-05-19T19:06:12.263Z,22.50
2023-05-19T19:08:39.722Z,28.80
2023-05-19T19:11:09.799Z,22.17
2023-05-19T19:13:37.168Z,33.30
2023-05-19T19:16:04.421Z,26.98
2023-05-19T19:18:32.032Z,25.50
2023-05-19T19:21:01.436Z,30.80
2023-05-19T19:23:29.459Z,25.08
2023-05-19T19:25:56.776Z,33.05
2023-05-19T19:28:24.106Z,23.50
2023-05-19T19:30:51.548Z,28.30
2023-05-19T19:33:18.920Z,19.48
2023-05-19T19:35:49.452Z,21.92
2023-05-19T19:38:17.359Z,31.50
2023-05-19T19:40:44.750Z,19.83
2023-05-19T19:43:12.109Z,17.50
2023-05-19T19:45:39.663Z,23.05
2023-05-19T19:48:09.705Z,23.63
2023-05-19T19:50:37.159Z,22.13
2023-05-19T19:53:04.513Z,17.25
2023-05-19T19:55:31.966Z,17.23
2023-05-19T19:57:59.455Z,16.05
2023-05-19T20:00:26.743Z,13.77
2023-05-19T20:03:03.430Z,13.23
2023-05-19T20:05:32.086Z,16.33
2023-05-19T20:07:59.434Z,17.20
2023-05-19T20:10:27.005Z,27.60
2023-05-19T20:12:54.352Z,24.58
2023-05-19T20:15:21.806Z,13.30
2023-05-19T20:17:49.147Z,18.88
2023-05-19T20:20:16.569Z,11.20
2023-05-19T20:22:47.015Z,24.23
2023-05-19T20:25:14.406Z,13.02
2023-05-19T20:27:41.607Z,16.88
2023-05-19T20:30:09.005Z,12.05
2023-05-19T20:32:36.659Z,12.27
2023-05-19T20:35:03.981Z,20.90
2023-05-19T20:37:31.290Z,15.07
2023-05-19T20:39:58.644Z,18.33
2023-05-19T20:42:26.113Z,14.02
2023-05-19T20:44:53.644Z,17.98
2023-05-19T20:47:21.201Z,13.60
2023-05-19T20:49:48.662Z,21.98
2023-05-19T20:52:16.142Z,17.65
2023-05-19T20:54:43.550Z,16.05
2023-05-19T20:57:10.990Z,18.90
2023-05-19T20:59:38.673Z,13.75
2023-05-19T21:02:06.513Z,18.60
2023-05-19T21:04:36.491Z,19.15
2023-05-19T21:07:04.194Z,13.25
2023-05-19T21:09:31.595Z,16.77
2023-05-19T21:11:59.114Z,13.80
2023-05-19T21:14:26.652Z,22.00
2023-05-19T21:16:54.390Z,28.48
2023-05-19T21:19:22.100Z,16.77
2023-05-19T21:21:49.709Z,14.52
2023-05-19T21:24:17.532Z,19.42
2023-05-19T21:26:44.975Z,22.35
2023-05-19T21:29:12.355Z,16.33
2023-05-19T21:31:42.671Z,17.38
2023-05-19T21:34:10.358Z,12.80
2023-05-19T21:36:37.620Z,22.27
2023-05-19T21:39:04.906Z,19.48
2023-05-19T21:41:32.572Z,18.30
2023-05-19T21:43:59.965Z,23.67
2023-05-19T21:46:29.171Z,16.73
2023-05-19T21:48:57.077Z,20.65
2023-05-19T21:51:24.435Z,19.83
2023-05-19T21:53:51.783Z,17.60
2023-05-19T21:56:19.021Z,22.17
2023-05-19T21:58:46.336Z,18.60
2023-05-19T22:01:14.448Z,14.85
2023-05-19T22:03:42.093Z,20.10
2023-05-19T22:06:09.494Z,18.80
2023-05-19T22:08:36.897Z,20.02
2023-05-19T22:11:04.459Z,21.15
2023-05-19T22:13:32.123Z,17.08
2023-05-19T22:15:59.508Z,24.48
2023-05-19T22:18:26.913Z,20.63
2023-05-19T22:20:54.173Z,22.77
2023-05-19T22:23:21.684Z,24.08
2023-05-19T22:25:48.959Z,24.00
2023-05-19T22:28:16.308Z,26.88
2023-05-19T22:30:44.263Z,18.02
2023-05-19T22:33:11.797Z,23.55
2023-05-19T22:35:39.426Z,21.90
2023-05-19T22:38:08.883Z,17.65
2023-05-19T22:40:37.877Z,22.35
2023-05-19T22:43:05.308Z,21.77
2023-05-19T22:45:32.912Z,16.15
2023-05-19T22:48:00.864Z,22.10
2023-05-19T22:50:28.153Z,20.50
2023-05-19T22:52:55.585Z,18.50
2023-05-19T22:55:22.933Z,20.35
2023-05-19T22:57:50.266Z,15.95
2023-05-19T23:00:21.079Z,19.90
2023-05-19T23:02:48.454Z,28.52
2023-05-19T23:05:15.808Z,15.30
2023-05-19T23:07:43.244Z,19.15
2023-05-19T23:10:10.675Z,21.95
2023-05-19T23:12:38.132Z,20.20
2023-05-19T23:15:05.384Z,14.27
2023-05-19T23:17:32.823Z,18.25
2023-05-19T23:20:00.128Z,17.65
2023-05-19T23:22:27.438Z,24.10
2023-05-19T23:24:54.782Z,21.13
2023-05-19T23:27:22.103Z,19.42
2023-05-19T23:29:49.384Z,22.40
2023-05-19T23:32:17.022Z,19.65
2023-05-19T23:34:44.750Z,21.58
2023-05-19T23:37:12.231Z,15.77
2023-05-19T23:39:39.650Z,17.92
2023-05-19T23:42:07.281Z,20.20
2023-05-19T23:44:34.905Z,19.00
2023-05-19T23:47:02.291Z,20.52
2023-05-19T23:49:29.673Z,23.33
2023-05-19T23:51:57.047Z,29.25
2023-05-19T23:54:24.625Z,23.40
2023-05-19T23:56:51.929Z,14.93
2023-05-19T23:59:19.393Z,15.90
